Tiempo atmosférico en la estación meteorológica de Nuñomoral, Cáceres (475 m.)



Fecha
DESCASC
Temp. máxima en grados centígrados (hora)
DESCASC
Temp. mínima en grados centígrados (hora)
DESCASC
Temp. media en grados centígrados
DESCASC
Racha de viento máxima en m/sg (hora)
DESCASC
Velocidad máxima media en intervalos de 10 minutos(hora)
DESCASC
Precipitaciones diarias en mm
DESCASC
Precipitaciones de 00:00 a 06:00 en mm
DESCASC
Precipitaciones de 06:00 a 12:00 en mm
DESCASC
Precipitaciones de 12:00 a 18:00 en mm
DESCASC
Precipitaciones de 18:00 a 24:00 en mm
DESCASC
10-11-2019 10.2 (00:10) 7.6 (00:00) 8.9 14.44 (06:00) 6.39 (03:00) 3.2 0.2 0 1.4 1.6
09-11-2019 10.2 (23:30) 3.3 (00:00) 6.7 8.61 (23:59) 4.44 (23:59) 5.8 0 2 3.6 0.2
08-11-2019 12 (15:40) 3.7 (00:00) 7.9 12.22 (14:30) 5 (14:20) 0 0 0 0 0
07-11-2019 12.8 (14:40) 6.8 (00:00) 9.8 12.78 (14:50) 6.11 (19:10) 2.4 1 0 1 0.4
06-11-2019 14.1 (15:30) 9.1 (00:00) 11.6 8.33 (02:30) 4.44 (02:50) 1.8 0.2 0 0 1.6
05-11-2019 15 (16:00) 8.9 (00:00) 11.9 11.39 (12:50) 5.56 (13:40) 0.4 0 0.2 0.2 0
04-11-2019 15.9 (16:10) 10.8 (00:00) 13.3 10 (16:30) 4.17 (16:30) 2.4 0 0 1.6 0.8
03-11-2019 16.5 (16:40) 13.1 (00:00) 14.8 13.33 (12:10) 6.67 (11:00) 0 0 0 0 0
02-11-2019 18.4 (12:00) 13.2 (00:00) 15.8 5.83 (21:50) 2.5 (12:40) 2.4 1.4 0.4 0.6 0
01-11-2019 20 (16:10) 14.4 (00:00) 17.2 7.5 (15:40) 2.5 (15:40) 10 0 1.8 0.8 7.4
31-10-2019 21.2 (15:10) 13.2 (08:10) 17.2 4.72 (13:50) 2.78 (13:50) 0.6 0.2 0 0 0.4
30-10-2019 16.2 (12:00) 10.3 (00:00) 13.3 2.78 (13:20) 1.39 (13:20) 3.6 0 0 3.4 0.2
29-10-2019 21 (14:00) 10.9 (00:00) 15.9 4.72 (15:40) 2.78 (15:40) 0.2 0.2 0 0 0
28-10-2019 19.2 (13:10) 7.4 (00:00) 13.3 6.67 (15:50) 3.61 (15:50) 0 0 0 0 0
27-10-2019 23.6 (15:00) 6 (00:00) 14.8 6.39 (14:50) 3.61 (14:50) 0 0 0 0 0
26-10-2019 24.2 (17:20) 3.9 (00:00) 14.1 6.39 (14:10) 3.33 (14:10) 0 0 0 0 0
25-10-2019 21.9 (18:00) 4.2 (00:00) 13 5.56 (15:20) 2.78 (16:40) 0 0 0 0 0
24-10-2019 20 (17:10) 7.7 (00:00) 13.8 7.5 (07:50) 3.61 (07:50) 0 0 0 0 0
23-10-2019 11.5 (01:50) 9 (00:00) 10.3 9.44 (11:40) 4.44 (15:30) 3.2 1.2 0.8 0.8 0.4
22-10-2019 16.1 (18:00) 0.9 (00:00) 8.5 8.06 (14:30) 3.33 (14:40) 0.2 0 0.2 0 0
21-10-2019 15 (15:00) 1.9 (00:00) 8.4 5.28 (16:10) 3.33 (15:50) 1 0 0.2 0.2 0.6
20-10-2019 14.9 (16:30) 5.9 (00:00) 10.4 8.33 (13:10) 4.72 (12:30) 8 1.2 0.2 4 2.6
19-10-2019 14.2 (20:00) 9.3 (00:00) 11.8 9.72 (17:50) 4.17 (17:50) 23 0 0.4 11.6 11
18-10-2019 20.2 (15:20) 11.6 (00:00) 15.9 6.67 (15:50) 3.61 (15:40) 4.2 4.2 0 0 0
17-10-2019 16.1 (15:10) 13 (00:00) 14.6 6.67 (03:00) 3.33 (03:00) 10.4 1.6 3 0.8 5
16-10-2019 17.6 (17:40) 4.4 (00:00) 11 8.33 (16:40) 3.06 (15:10) 0 0 0 0 0
15-10-2019 17 (17:20) 4.1 (00:00) 10.5 5 (00:30) 2.78 (17:30) 0 0 0 0 0
14-10-2019 17.1 (05:20) 6.8 (00:00) 12 11.39 (17:30) 4.17 (17:20) 21 0 7.4 13.6 0

Gráficas

Temp. máximas Temp. mínimas Temp. medias Precipitaciones Rachas de viento máximas Velocidades máximas media en intervalos de 10 minutos

Datos horarios

Fecha y hora oficial Temperatura (ºC) Velocidad del viento (km/h) Dirección del viento Racha (km/h) Dirección de racha Precipitación (mm) Presión (hPa) Tendencia (hPa) Humedad (%)
2019-11-12 23:00:00 10.3 0 Calma 5 Noroeste 0 -- -- 92
2019-11-12 22:00:00 10.5 0 Calma 3 Este 0 -- -- 89
2019-11-12 21:00:00 10.8 0 Calma 3 Sudeste 0 -- -- 86
2019-11-12 20:00:00 11 2 Nordeste 5 Norte 0 -- -- 83
2019-11-12 19:00:00 11.4 0 Calma 5 Sudeste 0 -- -- 81
2019-11-12 18:00:00 12.2 2 Sudeste 13 Oeste 0 -- -- 73
2019-11-12 17:00:00 12.9 5 Norte 22 Oeste 0 -- -- 67
2019-11-12 16:00:00 12.8 8 Noroeste 26 Oeste 0 -- -- 63
2019-11-12 15:00:00 12.8 15 Oeste 30 Sudoeste 0 -- -- 59
2019-11-12 14:00:00 12.5 13 Sudoeste 29 Sudoeste 0 -- -- 60
2019-11-12 13:00:00 12.3 14 Sudoeste 33 Oeste 0 -- -- 61
2019-11-12 12:00:00 11 18 Sudoeste 30 Sudoeste 0 -- -- 63
2019-11-12 11:00:00 9.9 11 Oeste 26 Noroeste 0 -- -- 65
2019-11-12 10:00:00 8.5 9 Sudoeste 23 Sudoeste 0 -- -- 68
2019-11-12 09:00:00 6.6 3 Oeste 15 Norte 0 -- -- 76
2019-11-12 08:00:00 7 7 Sudoeste 24 Oeste 0 -- -- 73
2019-11-12 07:00:00 7.5 12 Oeste 26 Oeste 0 -- -- 74
2019-11-12 06:00:00 7.2 11 Oeste 22 Sudoeste 0 -- -- 74
2019-11-12 05:00:00 6.8 10 Oeste 16 Sudoeste 0 -- -- 78
2019-11-12 04:00:00 5.9 7 Oeste 13 Sudoeste 0 -- -- 85
2019-11-12 03:00:00 5.3 6 Norte 12 Noroeste 0 -- -- 90
2019-11-12 02:00:00 6.3 5 Norte 19 Sudoeste 0 -- -- 84
2019-11-12 01:00:00 7.3 10 Oeste 26 Oeste 0 -- -- 82
2019-11-12 00:00:00 9.2 5 Oeste 30 Oeste 0 -- -- 76
2019-11-11 23:00:00 10 12 Oeste 24 Oeste 0.2 -- -- 73
2019-11-11 22:00:00 10.6 13 Oeste 26 Oeste 0 -- -- 73
2019-11-11 21:00:00 11.2 9 Oeste 18 Sudoeste 0 -- -- 75
2019-11-11 20:00:00 12.3 9 Oeste 22 Oeste 0 -- -- 71
2019-11-11 19:00:00 12.1 9 Oeste 18 Oeste 0 -- -- 76
2019-11-11 18:00:00 13.3 7 Oeste 17 Oeste 0 -- -- 74
2019-11-11 17:00:00 14.5 4 Noroeste 22 Nordeste 0 -- -- 68
2019-11-11 16:00:00 15.3 7 Sur 19 Sudoeste 0 -- -- 66
2019-11-11 15:00:00 14.8 3 Sur 19 Sudoeste 0 -- -- 77
2019-11-11 14:00:00 12.4 3 Sudeste 16 Este 0 -- -- 98
2019-11-11 13:00:00 10.1 3 Nordeste 15 Este 0 -- -- 97
2019-11-11 12:00:00 9.3 6 Este 10 Este 0.2 -- -- 97
2019-11-11 11:00:00 8.6 3 Este 8 Este 0.4 -- -- 97
2019-11-11 10:00:00 8.3 2 Norte 6 Noroeste 0.2 -- -- 97
2019-11-11 09:00:00 8 0 Calma 9 Sudeste 0 -- -- 96
2019-11-11 08:00:00 7.8 0 Calma 4 Noroeste 0 -- -- 96
2019-11-11 07:00:00 8 0 Calma 3 Oeste 0 -- -- 94
2019-11-11 06:00:00 8 0 Calma 2 Sur 0 -- -- 93
2019-11-11 05:00:00 8 3 Este 9 Este 0 -- -- 92
2019-11-11 04:00:00 8 0 Calma 8 Este 0 -- -- 90
2019-11-11 03:00:00 8.4 6 Este 13 Oeste 0 -- -- 88
2019-11-11 02:00:00 8.8 8 Oeste 18 Oeste 0 -- -- 86
2019-11-11 01:00:00 8.3 5 Sudoeste 17 Oeste 0.2 -- -- 87
2019-11-11 00:00:00 8.2 8 Sudoeste 22 Sudoeste 0 -- -- 87
2019-11-10 23:00:00 7.9 6 Oeste 17 Sudoeste 0 -- -- 87
2019-11-10 22:00:00 7.7 4 Oeste 16 Sudoeste 0.6 -- -- 90
2019-11-10 21:00:00 7.8 6 Oeste 21 Sudoeste 0.8 -- -- 88
2019-11-10 20:00:00 8.5 10 Oeste 22 Noroeste 0.2 -- -- 82
2019-11-10 19:00:00 9 9 Sudoeste 27 Sudoeste 0 -- -- 74
2019-11-10 18:00:00 9.1 10 Oeste 22 Oeste 0 -- -- 76
2019-11-10 17:00:00 9 6 Oeste 23 Oeste 0 -- -- 76
2019-11-10 16:00:00 9.5 12 Oeste 37 Sudoeste 0.2 -- -- 71
2019-11-10 15:00:00 8.8 11 Oeste 35 Sudoeste 0.6 -- -- 75
2019-11-10 14:00:00 8.1 14 Sudoeste 31 Oeste 0.6 -- -- 80
2019-11-10 13:00:00 9.5 15 Oeste 33 Oeste 0 -- -- 67
2019-11-10 12:00:00 9.6 15 Oeste 35 Sudoeste 0 -- -- 64
2019-11-10 11:00:00 9.1 14 Oeste 28 Oeste 0 -- -- 65
2019-11-10 10:00:00 8.3 6 Oeste 18 Sudoeste 0 -- -- 71
2019-11-10 09:00:00 7.7 10 Oeste 29 Sudoeste 0 -- -- 70
2019-11-10 08:00:00 7.7 9 Oeste 26 Sudoeste 0 -- -- 71
2019-11-10 07:00:00 8 12 Oeste 45 Oeste 0 -- -- 65
2019-11-10 06:00:00 8.3 22 Oeste 52 Noroeste 0 -- -- 63
2019-11-10 05:00:00 8.3 12 Oeste 35 Norte 0 -- -- 66
2019-11-10 04:00:00 8.8 16 Oeste 43 Noroeste 0 -- -- 66
2019-11-10 03:00:00 9 23 Oeste 49 Oeste 0 -- -- 65
2019-11-10 02:00:00 9.1 16 Oeste 45 Noroeste 0.2 -- -- 72
2019-11-10 01:00:00 10 7 Oeste 31 Sudoeste 0 -- -- 78
2019-11-10 00:00:00 10.1 16 Oeste 31 Oeste 0 -- -- 79
2019-11-09 23:00:00 9.9 12 Oeste 26 Sudoeste 0 -- -- 84
2019-11-09 22:00:00 9.8 8 Oeste 25 Noroeste 0.2 -- -- 89
2019-11-09 21:00:00 8.1 0 Calma 5 Este 0 -- -- 97
2019-11-09 20:00:00 8.1 0 Calma 3 Sudeste 0 -- -- 96
2019-11-09 19:00:00 8.1 0 Calma 8 Este 0 -- -- 96
2019-11-09 18:00:00 8.2 2 Nordeste 6 Norte 0.8 -- -- 95
2019-11-09 17:00:00 8.5 0 Calma 5 Nordeste 0.6 -- -- 94
2019-11-09 16:00:00 8.8 0 Calma 4 Nordeste 1.4 -- -- 94
2019-11-09 15:00:00 8.7 3 Este 5 Nordeste 0.2 -- -- 92
2019-11-09 14:00:00 8.8 0 Calma 3 Nordeste 0.2 -- -- 89
2019-11-09 13:00:00 8.5 0 Calma 10 Este 0.4 -- -- 90
2019-11-09 12:00:00 8 0 Calma 6 Este 1.8 -- -- 92
2019-11-09 11:00:00 8.1 3 Sudeste 9 Este 0 -- -- 83
2019-11-09 10:00:00 6.5 0 Calma 11 Este 0.2 -- -- 91
2019-11-09 09:00:00 5.8 3 Oeste 10 Oeste 0 -- -- 90
2019-11-09 08:00:00 4.9 4 Oeste 9 Oeste 0 -- -- 90
2019-11-09 07:00:00 5.8 6 Oeste 16 Norte 0 -- -- 85
2019-11-09 06:00:00 4.7 6 Oeste 15 Noroeste 0 -- -- 88
2019-11-09 05:00:00 4.2 4 Noroeste 9 Sudoeste 0 -- -- 89
2019-11-09 04:00:00 5.2 4 Oeste 10 Oeste 0 -- -- 85
2019-11-09 03:00:00 4.2 6 Oeste 11 Oeste 0 -- -- 92
2019-11-09 02:00:00 3.3 4 Noroeste 9 Noroeste 0 -- -- 93
2019-11-09 01:00:00 3.4 2 Noroeste 7 Noroeste 0 -- -- 93
2019-11-09 00:00:00 3.7 2 Norte 7 Norte 0 -- -- 91
2019-11-08 23:00:00 4 2 Oeste 7 Noroeste 0 -- -- 90
2019-11-08 22:00:00 4.6 0 Calma 8 Oeste 0 -- -- 88
2019-11-08 21:00:00 5.5 3 Noroeste 9 Noroeste 0 -- -- 86
2019-11-08 20:00:00 6.2 2 Norte 7 Norte 0 -- -- 85
2019-11-08 19:00:00 7.8 4 Sur 8 Norte 0 -- -- 78
2019-11-08 18:00:00 9.5 2 Norte 34 Sudoeste 0 -- -- 67
2019-11-08 17:00:00 11.4 12 Sudoeste 29 Oeste 0 -- -- 52
2019-11-08 16:00:00 11.7 10 Sudoeste 37 Sudoeste 0 -- -- 51
2019-11-08 15:00:00 11.7 12 Sudoeste 44 Oeste 0 -- -- 53
2019-11-08 14:00:00 11.2 13 Sudoeste 35 Sudoeste 0 -- -- 57
2019-11-08 13:00:00 10.5 11 Sudoeste 30 Sudoeste 0 -- -- 61
2019-11-08 12:00:00 8.8 4 Sur 24 Sur 0 -- -- 68
2019-11-08 11:00:00 7.4 7 Sur 25 Sudoeste 0 -- -- 69
2019-11-08 10:00:00 6.6 6 Sudeste 18 Oeste 0 -- -- 73
2019-11-08 09:00:00 6.1 6 Sur 26 Oeste 0 -- -- 76
2019-11-08 08:00:00 5.7 8 Norte 22 Norte 0 -- -- 77
2019-11-08 07:00:00 5.7 3 Sudeste 22 Sudoeste 0 -- -- 76
2019-11-08 06:00:00 6.1 9 Sudoeste 18 Sudoeste 0 -- -- 75
2019-11-08 05:00:00 6.2 7 Oeste 27 Norte 0 -- -- 74
2019-11-08 04:00:00 6.3 7 Sudoeste 31 Oeste 0 -- -- 70
2019-11-08 03:00:00 6.3 11 Oeste 29 Oeste 0 -- -- 74
2019-11-08 02:00:00 5.7 8 Noroeste 15 Noroeste 0 -- -- 81
2019-11-08 01:00:00 6.5 8 Oeste 22 Noroeste 0 -- -- 78
2019-11-08 00:00:00 6.8 8 Oeste 20 Oeste 0.2 -- -- 78
2019-11-07 23:00:00 7 10 Oeste 19 Oeste 0 -- -- 76
2019-11-07 22:00:00 7.3 10 Oeste 23 Oeste 0 -- -- 75
2019-11-07 21:00:00 7.2 10 Noroeste 23 Noroeste 0 -- -- 77
2019-11-07 20:00:00 7.4 13 Oeste 40 Oeste 0.2 -- -- 76
2019-11-07 19:00:00 8.9 10 Oeste 32 Oeste 0 -- -- 70
2019-11-07 18:00:00 9.1 12 Oeste 30 Oeste 0.2 -- -- 72
2019-11-07 17:00:00 9.9 10 Oeste 35 Oeste 0.4 -- -- 74
2019-11-07 16:00:00 10.1 7 Oeste 28 Oeste 0.4 -- -- 75
2019-11-07 15:00:00 10.8 6 Noroeste 46 Oeste 0 -- -- 72
2019-11-07 14:00:00 12.1 20 Oeste 42 Oeste 0 -- -- 55
2019-11-07 13:00:00 11.5 14 Oeste 34 Sudoeste 0 -- -- 57
2019-11-07 12:00:00 10.2 6 Oeste 27 Oeste 0 -- -- 66
2019-11-07 11:00:00 9.4 9 Sudoeste 20 Sudoeste 0 -- -- 72
2019-11-07 10:00:00 9.5 5 Sur 15 Oeste 0 -- -- 78
2019-11-07 09:00:00 9.5 4 Sudoeste 17 Oeste 0 -- -- 77
2019-11-07 08:00:00 9.4 3 Sudoeste 26 Oeste 0 -- -- 78
2019-11-07 07:00:00 10.5 12 Sudoeste 23 Sudoeste 0 -- -- 73
2019-11-07 06:00:00 11.3 10 Oeste 26 Sudoeste 0 -- -- 80
2019-11-07 05:00:00 10.6 3 Este 8 Sudeste 0.2 -- -- 97
2019-11-07 04:00:00 10.5 0 Calma 4 Sur 0 -- -- 96
2019-11-07 03:00:00 10.6 0 Calma 3 Este 0 -- -- 96
2019-11-07 02:00:00 10.5 0 Calma 3 Norte 0.8 -- -- 96
2019-11-07 01:00:00 10.5 0 Calma 3 Este 0 -- -- 96
2019-11-07 00:00:00 10.4 0 Calma 4 Norte 1 -- -- 96
2019-11-06 23:00:00 10.2 0 Calma 4 Este 0.2 -- -- 95
2019-11-06 22:00:00 10.3 0 Calma 2 Sudeste 0.4 -- -- 93
2019-11-06 21:00:00 10.4 0 Calma 6 Sudoeste 0 -- -- 91
2019-11-06 20:00:00 10.8 3 Sudoeste 8 Norte 0 -- -- 86
2019-11-06 19:00:00 11.3 0 Calma 9 Norte 0 -- -- 84
2019-11-06 18:00:00 11.9 6 Norte 13 Norte 0 -- -- 77
2019-11-06 17:00:00 13.3 0 Calma 9 Nordeste 0 -- -- 71
2019-11-06 16:00:00 13.7 5 Noroeste 15 Noroeste 0 -- -- 62
2019-11-06 15:00:00 13.7 6 Oeste 22 Sudoeste 0 -- -- 61
2019-11-06 14:00:00 13.3 7 Oeste 23 Oeste 0 -- -- 61
2019-11-06 13:00:00 13.5 10 Oeste 26 Oeste 0 -- -- 61
2019-11-06 12:00:00 13 13 Sudoeste 29 Oeste 0 -- -- 63
2019-11-06 11:00:00 10.7 5 Noroeste 15 Noroeste 0 -- -- 70
2019-11-06 10:00:00 10.3 5 Noroeste 18 Noroeste 0 -- -- 72
2019-11-06 09:00:00 9.5 5 Oeste 17 Oeste 0 -- -- 77
2019-11-06 08:00:00 9.3 6 Oeste 17 Oeste 0 -- -- 77
2019-11-06 07:00:00 9.2 8 Oeste 23 Oeste 0 -- -- 77
2019-11-06 06:00:00 9.1 8 Oeste 22 Oeste 0 -- -- 78
2019-11-06 05:00:00 9.3 9 Oeste 24 Sudoeste 0 -- -- 78
2019-11-06 04:00:00 10 11 Oeste 26 Oeste 0 -- -- 75
2019-11-06 03:00:00 10.2 10 Oeste 30 Oeste 0 -- -- 76
2019-11-06 02:00:00 10.2 8 Oeste 25 Oeste 0 -- -- 78
2019-11-06 01:00:00 10.6 10 Sudoeste 18 Oeste 0.2 -- -- 76
2019-11-06 00:00:00 10.1 3 Sudoeste 23 Norte 0 -- -- 79
2019-11-05 23:00:00 10.8 4 Sudeste 22 Noroeste 0 -- -- 75
2019-11-05 22:00:00 11.1 3 Sur 24 Nordeste 0 -- -- 73
2019-11-05 21:00:00 11 5 Este 14 Sudoeste 0 -- -- 74
2019-11-05 20:00:00 12.1 5 Noroeste 22 Noroeste 0 -- -- 70
2019-11-05 19:00:00 11.8 2 Sudeste 18 Sudoeste 0 -- -- 74
2019-11-05 18:00:00 12.6 5 Oeste 29 Sudoeste 0 -- -- 71
2019-11-05 17:00:00 13.3 8 Oeste 32 Oeste 0 -- -- 69
2019-11-05 16:00:00 15 13 Oeste 40 Oeste 0 -- -- 59
2019-11-05 15:00:00 13.6 10 Oeste 21 Oeste 0.2 -- -- 67
2019-11-05 14:00:00 13.8 15 Oeste 35 Sudoeste 0 -- -- 69
2019-11-05 13:00:00 13.6 12 Oeste 41 Oeste 0 -- -- 61
2019-11-05 12:00:00 12.9 15 Oeste 37 Oeste 0 -- -- 63
2019-11-05 11:00:00 10.6 6 Sudeste 20 Este 0 -- -- 86
2019-11-05 10:00:00 9.1 7 Este 20 Este 0.2 -- -- 90
2019-11-05 09:00:00 9.1 8 Este 17 Este 0 -- -- 85
2019-11-05 08:00:00 9.2 4 Este 10 Este 0 -- -- 82
2019-11-05 07:00:00 9.8 5 Noroeste 14 Oeste 0 -- -- 76
2019-11-05 06:00:00 9.9 6 Noroeste 22 Sudoeste 0 -- -- 73
2019-11-05 05:00:00 9.6 5 Noroeste 32 Oeste 0 -- -- 73
2019-11-05 04:00:00 10 9 Noroeste 30 Oeste 0 -- -- 68
2019-11-05 03:00:00 10.1 8 Oeste 25 Sudoeste 0 -- -- 69
2019-11-05 02:00:00 10.4 10 Oeste 23 Sudoeste 0 -- -- 68
2019-11-05 01:00:00 10.1 5 Oeste 13 Sur 0 -- -- 75
2019-11-05 00:00:00 10.8 4 Noroeste 33 Noroeste 0 -- -- 71
2019-11-04 23:00:00 11.3 9 Oeste 27 Sudoeste 0 -- -- 68
2019-11-04 22:00:00 11.3 8 Oeste 27 Noroeste 0 -- -- 73
2019-11-04 21:00:00 11.8 7 Noroeste 25 Oeste 0.2 -- -- 80
2019-11-04 20:00:00 11.9 2 Oeste 26 Oeste 0.6 -- -- 90
2019-11-04 19:00:00 12.4 5 Norte 11 Norte 0 -- -- 93
2019-11-04 18:00:00 13.2 2 Norte 23 Sudoeste 0 -- -- 89
2019-11-04 17:00:00 14 11 Oeste 36 Noroeste 0.6 -- -- 82
2019-11-04 16:00:00 15.8 8 Sudoeste 19 Sudoeste 0 -- -- 80
2019-11-04 15:00:00 15.2 0 Calma 8 Norte 0.6 -- -- 90
2019-11-04 14:00:00 14.9 8 Oeste 21 Oeste 0.4 -- -- 86
2019-11-04 13:00:00 15.6 5 Sudoeste 28 Oeste 0 -- -- 79
2019-11-04 12:00:00 15.3 14 Sudoeste 34 Sudoeste 0 -- -- 76
2019-11-04 11:00:00 14.8 8 Sur 24 Sudoeste 0 -- -- 78
2019-11-04 10:00:00 14.2 8 Sudoeste 23 Oeste 0 -- -- 80
2019-11-04 09:00:00 12.6 2 Sudeste 6 Nordeste 0 -- -- 91
2019-11-04 08:00:00 12.8 2 Este 9 Nordeste 0 -- -- 89
2019-11-04 07:00:00 12.8 2 Noroeste 12 Este 0 -- -- 91
2019-11-04 06:00:00 12.9 5 Nordeste 12 Sudoeste 0 -- -- 90
2019-11-04 05:00:00 12.5 3 Sudoeste 10 Este 0 -- -- 94
2019-11-04 04:00:00 12.4 4 Norte 7 Nordeste 0 -- -- 95
2019-11-04 03:00:00 12.6 0 Calma 5 Sudeste 0 -- -- 94
2019-11-04 02:00:00 12.6 0 Calma 7 Sudoeste 0 -- -- 93
2019-11-04 01:00:00 13.1 0 Calma 5 Este 0 -- -- 92
2019-11-04 00:00:00 13.2 4 Sudeste 8 Norte 0 -- -- 88
2019-11-03 23:00:00 13.2 2 Norte 6 Norte 0 -- -- 88
2019-11-03 22:00:00 13.1 0 Calma 4 Este 0 -- -- 88
2019-11-03 21:00:00 13.4 0 Calma 6 Este 0 -- -- 87
2019-11-03 20:00:00 13.7 2 Este 4 Oeste 0 -- -- 83
2019-11-03 19:00:00 14.1 2 Este 5 Este 0 -- -- 81
2019-11-03 18:00:00 15.1 2 Este 7 Nordeste 0 -- -- 74
2019-11-03 17:00:00 16.1 4 Oeste 24 Sudoeste 0 -- -- 63
2019-11-03 16:00:00 15.4 9 Oeste 40 Oeste 0 -- -- 63
2019-11-03 15:00:00 15.3 10 Sudoeste 28 Oeste 0 -- -- 61
2019-11-03 14:00:00 14.9 12 Oeste 37 Oeste 0 -- -- 60
2019-11-03 13:00:00 14.2 12 Sudoeste 48 Oeste 0 -- -- 64
2019-11-03 12:00:00 13.9 21 Sudoeste 39 Sudoeste 0 -- -- 60
2019-11-03 11:00:00 13.5 24 Sudoeste 45 Oeste 0 -- -- 62
2019-11-03 10:00:00 13.2 23 Sudoeste 44 Sudoeste 0 -- -- 64
2019-11-03 09:00:00 13.2 16 Oeste 42 Noroeste 0 -- -- 79
2019-11-03 08:00:00 14.6 14 Noroeste 43 Oeste 0 -- -- 78
2019-11-03 07:00:00 16 12 Oeste 45 Oeste 0 -- -- 73
2019-11-03 06:00:00 16.2 22 Oeste 46 Sudoeste 0 -- -- 72
2019-11-03 05:00:00 14.7 9 Oeste 24 Sudoeste 0 -- -- 79
2019-11-03 04:00:00 15 10 Oeste 24 Sudoeste 0 -- -- 74
2019-11-03 03:00:00 14.1 6 Sudoeste 18 Sudoeste 0 -- -- 76
2019-11-03 02:00:00 13.4 3 Sudeste 12 Este 0 -- -- 85
2019-11-03 01:00:00 13.7 3 Este 9 Noroeste 0 -- -- 83
2019-11-03 00:00:00 14 5 Sur 14 Sudoeste 0 -- -- 78
2019-11-02 23:00:00 13.4 3 Sudeste 15 Oeste 0 -- -- 79
2019-11-02 22:00:00 14.6 8 Oeste 21 Oeste 0 -- -- 67
2019-11-02 21:00:00 14.7 6 Sudoeste 18 Oeste 0 -- -- 68
2019-11-02 20:00:00 14.2 0 Calma 9 Oeste 0 -- -- 88
2019-11-02 19:00:00 14.9 4 Norte 12 Noroeste 0 -- -- 87
2019-11-02 18:00:00 16.2 2 Noroeste 15 Oeste 0 -- -- 79
2019-11-02 17:00:00 17.2 6 Oeste 21 Sudoeste 0 -- -- 71
2019-11-02 16:00:00 17.7 8 Sudoeste 19 Sudoeste 0.2 -- -- 74
2019-11-02 15:00:00 17.5 2 Norte 10 Noroeste 0.2 -- -- 86
2019-11-02 14:00:00 17.5 0 Calma 8 Este 0 -- -- 81
2019-11-02 13:00:00 17.1 2 Sur 17 Oeste 0.2 -- -- 87
2019-11-02 12:00:00 18.4 5 Sudoeste 10 Noroeste 0 -- -- 75
2019-11-02 11:00:00 17.6 5 Este 13 Este 0 -- -- 85
2019-11-02 10:00:00 15 4 Este 7 Este 0 -- -- 99
2019-11-02 09:00:00 13.9 2 Este 4 Nordeste 0 -- -- 99
2019-11-02 08:00:00 13.5 0 Calma 4 Noroeste 0 -- -- 99
2019-11-02 07:00:00 13.6 0 Calma 4 Oeste 0.4 -- -- 99
2019-11-02 06:00:00 13.4 0 Calma 3 Noroeste 0 -- -- 99
2019-11-02 05:00:00 13.3 0 Calma 3 Norte 0 -- -- 98
2019-11-02 04:00:00 13.3 0 Calma 4 Noroeste 0 -- -- 98
2019-11-02 03:00:00 13.6 2 Norte 5 Noroeste 0 -- -- 98
2019-11-02 02:00:00 14.1 3 Este 5 Nordeste 1.4 -- -- 98
2019-11-02 01:00:00 14 0 Calma 4 Norte 0 -- -- 97
2019-11-02 00:00:00 14.4 0 Calma 4 Oeste 0 -- -- 97
2019-11-01 23:00:00 14.4 0 Calma 4 Este 0.6 -- -- 97
2019-11-01 22:00:00 14.5 0 Calma 6 Sudeste 0.4 -- -- 96
2019-11-01 21:00:00 14.6 2 Norte 8 Norte 0.8 -- -- 95
2019-11-01 20:00:00 15.3 0 Calma 11 Noroeste 3.2 -- -- 93
2019-11-01 19:00:00 17 5 Noroeste 17 Oeste 2.4 -- -- 91
2019-11-01 18:00:00 18.1 3 Norte 13 Sudoeste 0.6 -- -- 88
2019-11-01 17:00:00 19.6 4 Oeste 23 Oeste 0 -- -- 80
2019-11-01 16:00:00 19.8 4 Oeste 27 Oeste 0 -- -- 75
2019-11-01 15:00:00 18.4 0 Calma 7 Este 0 -- -- 93
2019-11-01 14:00:00 17.9 4 Este 8 Norte 0.2 -- -- 94
2019-11-01 13:00:00 17.6 3 Norte 10 Nordeste 0 -- -- 95
2019-11-01 12:00:00 16.7 6 Este 14 Este 0.8 -- -- 96
2019-11-01 11:00:00 15.9 4 Este 12 Este 1 -- -- 97
2019-11-01 10:00:00 15.8 5 Este 11 Este 0 -- -- 97
2019-11-01 09:00:00 15.6 4 Este 12 Este 0 -- -- 97
2019-11-01 08:00:00 15.4 2 Norte 6 Este 0 -- -- 97
2019-11-01 07:00:00 15.6 0 Calma 8 Sudeste 0 -- -- 96
2019-11-01 06:00:00 16 2 Sudeste 7 Sudoeste 0 -- -- 97
2019-11-01 05:00:00 16.1 0 Calma 4 Norte 0 -- -- 97
2019-11-01 04:00:00 16.2 0 Calma 6 Sudeste 0 -- -- 97
2019-11-01 03:00:00 16.3 3 Este 5 Este 0 -- -- 97
2019-11-01 02:00:00 16.4 0 Calma 6 Sudeste 0 -- -- 97
2019-11-01 01:00:00 16.4 2 Sudoeste 7 Este 0 -- -- 97
2019-11-01 00:00:00 16.5 2 Sur 6 Sudeste 0 -- -- 96
2019-10-31 23:00:00 16.6 0 Calma 5 Este 0 -- -- 96
2019-10-31 22:00:00 16.7 0 Calma 3 Noroeste 0 -- -- 95
2019-10-31 21:00:00 17.1 0 Calma 3 Nordeste 0 -- -- 94
2019-10-31 20:00:00 17.4 0 Calma 5 Sudeste 0 -- -- 94
2019-10-31 19:00:00 17.8 0 Calma 5 Oeste 0.4 -- -- 91
2019-10-31 18:00:00 18.6 3 Oeste 8 Norte 0 -- -- 86
2019-10-31 17:00:00 19.3 5 Norte 12 Este 0 -- -- 81
2019-10-31 16:00:00 20.9 7 Este 13 Este 0 -- -- 75
2019-10-31 15:00:00 20.9 4 Sudeste 14 Este 0 -- -- 72
2019-10-31 14:00:00 20 6 Este 17 Este 0 -- -- 77
2019-10-31 13:00:00 19.7 7 Este 14 Este 0 -- -- 75
2019-10-31 12:00:00 18 4 Este 9 Este 0 -- -- 83
2019-10-31 11:00:00 16.3 4 Este 8 Este 0 -- -- 94
2019-10-31 10:00:00 14.3 0 Calma 4 Sudoeste 0 -- -- 99
2019-10-31 09:00:00 13.4 0 Calma 4 Noroeste 0 -- -- 98
2019-10-31 08:00:00 13.3 0 Calma 6 Oeste 0 -- -- 97
2019-10-31 07:00:00 13.8 2 Oeste 5 Oeste 0 -- -- 97
2019-10-31 06:00:00 14 0 Calma 4 Sudoeste 0 -- -- 97
2019-10-31 05:00:00 14.4 0 Calma 4 Oeste 0.2 -- -- 96
2019-10-31 04:00:00 14.9 0 Calma 6 Sudoeste 0 -- -- 97
2019-10-31 03:00:00 15.2 0 Calma 4 Sudoeste 0 -- -- 97
2019-10-31 02:00:00 15.2 3 Sudoeste 4 Sudoeste 0 -- -- 97
2019-10-31 01:00:00 15.2 2 Norte 4 Sur 0 -- -- 97
2019-10-31 00:00:00 15.2 0 Calma 3 Norte 0 -- -- 97
2019-10-30 23:00:00 15.2 2 Norte 5 Norte 0 -- -- 97
2019-10-30 22:00:00 15.3 0 Calma 3 Norte 0 -- -- 96
2019-10-30 21:00:00 15.5 0 Calma 3 Norte 0 -- -- 96
2019-10-30 20:00:00 15.5 0 Calma 3 Nordeste 0 -- -- 96
2019-10-30 19:00:00 15.7 0 Calma 3 Sudeste 0.2 -- -- 95
2019-10-30 18:00:00 15.8 2 Nordeste 3 Nordeste 0.4 -- -- 95
2019-10-30 17:00:00 15.9 0 Calma 5 Nordeste 0.6 -- -- 95
2019-10-30 16:00:00 15.9 3 Este 7 Este 1.4 -- -- 94
2019-10-30 15:00:00 15.8 2 Nordeste 8 Este 0 -- -- 93
2019-10-30 14:00:00 15.4 0 Calma 10 Este 0 -- -- 93
2019-10-30 13:00:00 15.8 3 Nordeste 5 Este 1 -- -- 91
2019-10-30 12:00:00 16.2 0 Calma 6 Este 0 -- -- 86
2019-10-30 11:00:00 14.3 0 Calma 3 Sudoeste 0 -- -- 94
2019-10-30 10:00:00 12.2 0 Calma 4 Este 0 -- -- 97
2019-10-30 09:00:00 10.9 0 Calma 3 Sudeste 0 -- -- 97
2019-10-30 08:00:00 10.3 0 Calma 4 Nordeste 0 -- -- 95
2019-10-30 07:00:00 11.2 2 Norte 4 Norte 0 -- -- 95
2019-10-30 06:00:00 11.7 0 Calma 3 Este 0 -- -- 95
2019-10-30 05:00:00 12.2 0 Calma 3 Norte 0 -- -- 95
2019-10-30 04:00:00 12.7 0 Calma 3 Noroeste 0 -- -- 93
2019-10-30 03:00:00 12.8 0 Calma 2 Este 0 -- -- 94
2019-10-30 02:00:00 12.6 0 Calma 6 Oeste 0 -- -- 94
2019-10-30 01:00:00 12.1 0 Calma 3 Noroeste 0 -- -- 93
2019-10-30 00:00:00 12.2 0 Calma 3 Este 0 -- -- 92
2019-10-29 23:00:00 13.1 0 Calma 5 Noroeste 0 -- -- 90
2019-10-29 22:00:00 14.4 0 Calma 7 Sudoeste 0 -- -- 88
2019-10-29 21:00:00 15.5 0 Calma 6 Sudoeste 0 -- -- 85
2019-10-29 20:00:00 16.5 0 Calma 2 Sudeste 0 -- -- 83
2019-10-29 19:00:00 17.5 0 Calma 4 Noroeste 0 -- -- 79
2019-10-29 18:00:00 18.6 0 Calma 13 Oeste 0 -- -- 73
2019-10-29 17:00:00 19.5 5 Sudoeste 15 Oeste 0 -- -- 64
2019-10-29 16:00:00 19.8 9 Oeste 17 Sudoeste 0 -- -- 63
2019-10-29 15:00:00 20.5 6 Oeste 17 Sudeste 0 -- -- 59
2019-10-29 14:00:00 21 8 Sudeste 14 Sudeste 0 -- -- 59
2019-10-29 13:00:00 19.5 6 Sudoeste 15 Este 0 -- -- 63
2019-10-29 12:00:00 18 8 Este 13 Este 0 -- -- 74
2019-10-29 11:00:00 14.8 2 Sudeste 5 Este 0 -- -- 95
2019-10-29 10:00:00 12.2 0 Calma 3 Sudeste 0 -- -- 97
2019-10-29 09:00:00 11.7 0 Calma 7 Oeste 0 -- -- 97
2019-10-29 08:00:00 11.7 3 Oeste 6 Oeste 0 -- -- 97
2019-10-29 07:00:00 11.5 0 Calma 3 Noroeste 0 -- -- 97
2019-10-29 06:00:00 10.9 0 Calma 2 Norte 0 -- -- 95
2019-10-29 05:00:00 11.7 0 Calma 4 Sudeste 0 -- -- 95
2019-10-29 04:00:00 12.3 0 Calma 4 Sudeste 0.2 -- -- 95
2019-10-29 03:00:00 12.4 0 Calma 2 Nordeste 0 -- -- 94
2019-10-29 02:00:00 12.2 0 Calma 2 Norte 0 -- -- 94
2019-10-29 01:00:00 11.8 0 Calma 4 Este 0 -- -- 94
2019-10-29 00:00:00 11.3 0 Calma 4 Este 0 -- -- 94
2019-10-28 23:00:00 11.2 0 Calma 4 Sudeste 0 -- -- 91
2019-10-28 22:00:00 12.1 0 Calma 2 Norte 0 -- -- 90
2019-10-28 21:00:00 12.8 0 Calma 3 Norte 0 -- -- 88
2019-10-28 20:00:00 13.6 0 Calma 3 Norte 0 -- -- 86
2019-10-28 19:00:00 15.1 0 Calma 3 Sudeste 0 -- -- 82
2019-10-28 18:00:00 17 0 Calma 17 Este 0 -- -- 73
2019-10-28 17:00:00 17.9 9 Este 23 Este 0 -- -- 69
2019-10-28 16:00:00 18.6 13 Este 24 Este 0 -- -- 66
2019-10-28 15:00:00 18.8 8 Este 22 Este 0 -- -- 66
2019-10-28 14:00:00 18.6 9 Este 18 Este 0 -- -- 66
2019-10-28 13:00:00 19 6 Sur 14 Sur 0 -- -- 63
2019-10-28 12:00:00 17.7 4 Sudeste 17 Sudeste 0 -- -- 72
2019-10-28 11:00:00 14.3 2 Sudoeste 6 Oeste 0 -- -- 87
2019-10-28 10:00:00 11.5 0 Calma 4 Sudoeste 0 -- -- 94
2019-10-28 09:00:00 8.9 2 Oeste 6 Sudoeste 0 -- -- 97
2019-10-28 08:00:00 7.4 0 Calma 4 Norte 0 -- -- 96
2019-10-28 07:00:00 7.4 2 Sudeste 4 Sur 0 -- -- 94
2019-10-28 06:00:00 8.2 0 Calma 2 Norte 0 -- -- 93
2019-10-28 05:00:00 8.7 0 Calma 3 Norte 0 -- -- 93
2019-10-28 04:00:00 9.6 0 Calma 3 Sudoeste 0 -- -- 91
2019-10-28 03:00:00 10.5 0 Calma 5 Sur 0 -- -- 90
2019-10-28 02:00:00 11.1 0 Calma 4 Sudoeste 0 -- -- 88
2019-10-28 01:00:00 11.4 0 Calma 6 Norte 0 -- -- 87
2019-10-28 00:00:00 11.6 0 Calma 5 Sur 0 -- -- 86
2019-10-27 23:00:00 11.9 2 Noroeste 5 Noroeste 0 -- -- 83
2019-10-27 22:00:00 11.8 2 Norte 4 Norte 0 -- -- 84
2019-10-27 21:00:00 12.9 0 Calma 5 Noroeste 0 -- -- 79
2019-10-27 20:00:00 14 2 Noroeste 5 Oeste 0 -- -- 76
2019-10-27 19:00:00 15.7 2 Noroeste 4 Oeste 0 -- -- 73
2019-10-27 18:00:00 18 0 Calma 4 Oeste 0 -- -- 68
2019-10-27 17:00:00 20.1 2 Este 9 Sudoeste 0 -- -- 60
2019-10-27 16:00:00 22.6 2 Sudeste 22 Sudoeste 0 -- -- 47
2019-10-27 15:00:00 23.6 11 Oeste 23 Sudoeste 0 -- -- 35
2019-10-27 14:00:00 22.5 9 Este 14 Sudeste 0 -- -- 44
2019-10-27 13:00:00 22 5 Sudeste 15 Este 0 -- -- 52
2019-10-27 12:00:00 18 5 Este 10 Este 0 -- -- 62
2019-10-27 11:00:00 13.8 3 Sudeste 7 Sudeste 0 -- -- 82
2019-10-27 10:00:00 10.3 0 Calma 5 Norte 0 -- -- 97
2019-10-27 09:00:00 7.5 0 Calma 3 Norte 0 -- -- 98
2019-10-27 08:00:00 6.2 0 Calma 4 Sudeste 0 -- -- 96
2019-10-27 07:00:00 6.7 0 Calma 2 Noroeste 0 -- -- 96
2019-10-27 06:00:00 7.1 0 Calma 2 Noroeste 0 -- -- 96
2019-10-27 05:00:00 6.8 0 Calma 3 Norte 0 -- -- 96
2019-10-27 04:00:00 6 0 Calma 3 Noroeste 0 -- -- 95
2019-10-27 03:00:00 6.3 0 Calma 2 Noroeste 0 -- -- 94
2019-10-27 02:00:00 6.7 0 Calma 2 Sudeste 0 -- -- 93
2019-10-27 01:00:00 8.3 0 Calma 4 Norte 0 -- -- 91
2019-10-27 00:00:00 9.3 3 Norte 5 Norte 0 -- -- 89
2019-10-26 23:00:00 9.9 3 Norte 6 Noroeste 0 -- -- 88
2019-10-26 22:00:00 11.2 3 Noroeste 8 Noroeste 0 -- -- 84
2019-10-26 21:00:00 12.8 3 Noroeste 7 Oeste 0 -- -- 78
2019-10-26 20:00:00 15.1 3 Oeste 7 Oeste 0 -- -- 71
2019-10-26 19:00:00 19.6 3 Oeste 9 Oeste 0 -- -- 56
2019-10-26 18:00:00 23.5 4 Sudoeste 16 Oeste 0 -- -- 45
2019-10-26 17:00:00 24 6 Noroeste 19 Oeste 0 -- -- 39
2019-10-26 16:00:00 23.6 4 Este 17 Oeste 0 -- -- 41
2019-10-26 15:00:00 23.1 4 Sur 23 Oeste 0 -- -- 41
2019-10-26 14:00:00 22.1 9 Oeste 22 Oeste 0 -- -- 42
2019-10-26 13:00:00 19.1 2 Sur 7 Noroeste 0 -- -- 63
2019-10-26 12:00:00 14.5 3 Sudeste 9 Este 0 -- -- 80
2019-10-26 11:00:00 9.5 2 Sudeste 4 Este 0 -- -- 99
2019-10-26 10:00:00 5.4 0 Calma 3 Sudoeste 0 -- -- 99
2019-10-26 09:00:00 3.9 0 Calma 4 Norte 0 -- -- 97
2019-10-26 08:00:00 4.2 0 Calma 2 Sur 0 -- -- 97
2019-10-26 07:00:00 4.6 0 Calma 3 Noroeste 0 -- -- 96
2019-10-26 06:00:00 4.9 0 Calma 4 Sur 0 -- -- 96
2019-10-26 05:00:00 5.3 0 Calma 3 Norte 0 -- -- 96
2019-10-26 04:00:00 5.7 0 Calma 3 Norte 0 -- -- 95
2019-10-26 03:00:00 6.2 0 Calma 4 Sudeste 0 -- -- 95
2019-10-26 02:00:00 6.7 0 Calma 5 Norte 0 -- -- 94
2019-10-26 01:00:00 6.9 2 Noroeste 4 Noroeste 0 -- -- 93
2019-10-26 00:00:00 7.7 0 Calma 5 Noroeste 0 -- -- 91
2019-10-25 23:00:00 8.6 0 Calma 5 Norte 0 -- -- 89
2019-10-25 22:00:00 10 0 Calma 5 Noroeste 0 -- -- 85
2019-10-25 21:00:00 11.6 2 Noroeste 6 Oeste 0 -- -- 81
2019-10-25 20:00:00 14 4 Noroeste 8 Oeste 0 -- -- 73
2019-10-25 19:00:00 18.1 5 Oeste 10 Oeste 0 -- -- 59
2019-10-25 18:00:00 21.9 0 Calma 13 Este 0 -- -- 49
2019-10-25 17:00:00 21.6 6 Este 16 Este 0 -- -- 41
2019-10-25 16:00:00 21.5 8 Este 20 Este 0 -- -- 41
2019-10-25 15:00:00 20.6 7 Este 13 Este 0 -- -- 53
2019-10-25 14:00:00 18.7 8 Este 12 Este 0 -- -- 64
2019-10-25 13:00:00 15.6 2 Sudeste 9 Este 0 -- -- 78
2019-10-25 12:00:00 11.2 5 Este 10 Este 0 -- -- 98
2019-10-25 11:00:00 7.6 0 Calma 2 Este 0 -- -- 99
2019-10-25 10:00:00 5.6 0 Calma 2 Este 0 -- -- 98
2019-10-25 09:00:00 4.2 0 Calma 3 Norte 0 -- -- 97
2019-10-25 08:00:00 4.5 0 Calma 4 Oeste 0 -- -- 96
2019-10-25 07:00:00 4.6 0 Calma 2 Norte 0 -- -- 96
2019-10-25 06:00:00 5 0 Calma 2 Sudeste 0 -- -- 96
2019-10-25 05:00:00 5.6 2 Norte 4 Norte 0 -- -- 95
2019-10-25 04:00:00 6.3 2 Noroeste 4 Norte 0 -- -- 96
2019-10-25 03:00:00 6.8 2 Norte 4 Norte 0 -- -- 95
2019-10-25 02:00:00 7.3 0 Calma 4 Norte 0 -- -- 94
2019-10-25 01:00:00 8 0 Calma 4 Noroeste 0 -- -- 94
2019-10-25 00:00:00 8.7 0 Calma 5 Oeste 0 -- -- 93
2019-10-24 23:00:00 9.6 2 Noroeste 4 Norte 0 -- -- 92
2019-10-24 22:00:00 10.5 0 Calma 5 Norte 0 -- -- 89
2019-10-24 21:00:00 12.1 3 Norte 9 Noroeste 0 -- -- 84
2019-10-24 20:00:00 14.2 3 Oeste 9 Oeste 0 -- -- 78
2019-10-24 19:00:00 17 3 Sur 17 Oeste 0 -- -- 67
2019-10-24 18:00:00 18.3 9 Oeste 19 Oeste 0 -- -- 60
2019-10-24 17:00:00 19.9 13 Noroeste 23 Noroeste 0 -- -- 55
2019-10-24 16:00:00 19.5 9 Noroeste 17 Noroeste 0 -- -- 56
2019-10-24 15:00:00 17.6 11 Este 17 Este 0 -- -- 61
2019-10-24 14:00:00 16.8 5 Sudeste 11 Nordeste 0 -- -- 61
2019-10-24 13:00:00 14.6 3 Sudoeste 11 Sudoeste 0 -- -- 65
2019-10-24 12:00:00 13.1 4 Sur 22 Oeste 0 -- -- 68
2019-10-24 11:00:00 11 4 Noroeste 10 Oeste 0 -- -- 77
2019-10-24 10:00:00 9.1 2 Noroeste 9 Sudoeste 0 -- -- 87
2019-10-24 09:00:00 7.8 3 Oeste 20 Oeste 0 -- -- 89
2019-10-24 08:00:00 9.9 10 Noroeste 27 Oeste 0 -- -- 80
2019-10-24 07:00:00 10 4 Oeste 16 Sudoeste 0 -- -- 81
2019-10-24 06:00:00 10.2 5 Sudoeste 13 Sudoeste 0 -- -- 80
2019-10-24 05:00:00 9.9 3 Oeste 12 Oeste 0 -- -- 83
2019-10-24 04:00:00 10.1 2 Oeste 22 Sudoeste 0 -- -- 84
2019-10-24 03:00:00 10.4 5 Oeste 17 Oeste 0 -- -- 82
2019-10-24 02:00:00 10.4 4 Oeste 14 Oeste 0 -- -- 86
2019-10-24 01:00:00 10.5 8 Oeste 19 Oeste 0 -- -- 83
2019-10-24 00:00:00 9.9 3 Oeste 10 Oeste 0 -- -- 86
2019-10-23 23:00:00 10.3 4 Oeste 15 Noroeste 0 -- -- 79
2019-10-23 22:00:00 10.1 3 Noroeste 26 Sudoeste 0 -- -- 85
2019-10-23 21:00:00 9.9 4 Oeste 9 Oeste 0 -- -- 91
2019-10-23 20:00:00 10 5 Oeste 13 Sur 0.2 -- -- 89
2019-10-23 19:00:00 10.3 5 Oeste 18 Oeste 0.2 -- -- 86
2019-10-23 18:00:00 10.4 11 Sudoeste 26 Oeste 0.4 -- -- 85
2019-10-23 17:00:00 10.5 10 Oeste 27 Sudoeste 0.4 -- -- 87
2019-10-23 16:00:00 10.7 12 Oeste 32 Sudoeste 0 -- -- 83
2019-10-23 15:00:00 10.8 13 Oeste 32 Noroeste 0 -- -- 83
2019-10-23 14:00:00 11.3 14 Sudoeste 28 Sudoeste 0 -- -- 80
2019-10-23 13:00:00 10.9 13 Sudoeste 31 Sudoeste 0 -- -- 81
2019-10-23 12:00:00 10.6 14 Oeste 34 Sudoeste 0 -- -- 82
2019-10-23 11:00:00 10.1 10 Oeste 24 Oeste 0.2 -- -- 82
2019-10-23 10:00:00 9.5 8 Oeste 17 Oeste 0.4 -- -- 87
2019-10-23 09:00:00 9.4 9 Oeste 19 Sudoeste 0.2 -- -- 86
2019-10-23 08:00:00 9.3 5 Oeste 15 Oeste 0 -- -- 88
2019-10-23 07:00:00 9.5 7 Sudoeste 17 Noroeste 0 -- -- 86
2019-10-23 06:00:00 9.3 6 Oeste 15 Sudoeste 0 -- -- 88
2019-10-23 05:00:00 9.1 7 Oeste 12 Oeste 0.4 -- -- 90
2019-10-23 04:00:00 9.2 5 Oeste 12 Oeste 0.6 -- -- 90
2019-10-23 03:00:00 9.9 7 Oeste 17 Oeste 0.2 -- -- 83
2019-10-23 02:00:00 11.3 7 Oeste 19 Oeste 0 -- -- 68
2019-10-23 01:00:00 11.3 3 Sur 18 Oeste 0 -- -- 67
2019-10-23 00:00:00 11.1 12 Oeste 19 Oeste 0 -- -- 67
2019-10-22 23:00:00 9.6 2 Oeste 15 Este 0 -- -- 83
2019-10-22 22:00:00 9.5 0 Calma 11 Sudoeste 0 -- -- 83
2019-10-22 21:00:00 9.7 4 Este 9 Sudoeste 0 -- -- 81
2019-10-22 20:00:00 10.7 0 Calma 11 Sudeste 0 -- -- 76
2019-10-22 19:00:00 12.6 9 Este 25 Sudeste 0 -- -- 64
2019-10-22 18:00:00 16.1 3 Noroeste 21 Noroeste 0 -- -- 50
2019-10-22 17:00:00 15.6 9 Nordeste 18 Nordeste 0 -- -- 51
2019-10-22 16:00:00 15.3 8 Este 25 Norte 0 -- -- 55
2019-10-22 15:00:00 15.1 7 Este 29 Este 0 -- -- 56
2019-10-22 14:00:00 15.3 6 Sudeste 17 Sudeste 0 -- -- 61
2019-10-22 13:00:00 13.1 8 Este 12 Este 0 -- -- 67
2019-10-22 12:00:00 9.7 4 Este 6 Este 0 -- -- 87
2019-10-22 11:00:00 6 0 Calma 5 Sudeste 0 -- -- 100
2019-10-22 10:00:00 3.1 0 Calma 8 Sudoeste 0.2 -- -- 99
2019-10-22 09:00:00 0.9 0 Calma 5 Sudeste 0 -- -- 98
2019-10-22 08:00:00 1.4 3 Este 5 Este 0 -- -- 98
2019-10-22 07:00:00 1.7 0 Calma 6 Noroeste 0 -- -- 98
2019-10-22 06:00:00 2.2 3 Noroeste 8 Oeste 0 -- -- 98
2019-10-22 05:00:00 2.2 2 Oeste 5 Este 0 -- -- 98
2019-10-22 04:00:00 2.1 2 Este 5 Norte 0 -- -- 97
2019-10-22 03:00:00 2.5 0 Calma 3 Norte 0 -- -- 97
2019-10-22 02:00:00 3.4 0 Calma 5 Oeste 0 -- -- 96
2019-10-22 01:00:00 3.8 0 Calma 6 Norte 0 -- -- 96
2019-10-22 00:00:00 4.6 2 Oeste 5 Noroeste 0 -- -- 96
2019-10-21 23:00:00 5.2 0 Calma 5 Norte 0 -- -- 95
2019-10-21 22:00:00 6.2 0 Calma 5 Norte 0 -- -- 93
2019-10-21 21:00:00 7.8 0 Calma 8 Oeste 0 -- -- 93
2019-10-21 20:00:00 9.2 3 Norte 11 Oeste 0.4 -- -- 92
2019-10-21 19:00:00 9.8 5 Oeste 10 Noroeste 0.2 -- -- 91
2019-10-21 18:00:00 10.2 4 Oeste 7 Oeste 0.2 -- -- 88
2019-10-21 17:00:00 10.6 0 Calma 19 Noroeste 0 -- -- 80
2019-10-21 16:00:00 13.6 9 Noroeste 17 Oeste 0 -- -- 67
2019-10-21 15:00:00 15 6 Sudoeste 16 Este 0 -- -- 54
2019-10-21 14:00:00 12.5 2 Norte 10 Sudeste 0 -- -- 84
2019-10-21 13:00:00 12.1 4 Este 12 Este 0 -- -- 73
2019-10-21 12:00:00 9.6 3 Este 8 Este 0 -- -- 94
2019-10-21 11:00:00 6.4 0 Calma 3 Sudeste 0 -- -- 100
2019-10-21 10:00:00 3.4 0 Calma 2 Sudeste 0 -- -- 99
2019-10-21 09:00:00 2 0 Calma 4 Noroeste 0 -- -- 98
2019-10-21 08:00:00 2.6 0 Calma 3 Norte 0.2 -- -- 98
2019-10-21 07:00:00 2.5 0 Calma 3 Sudeste 0 -- -- 98
2019-10-21 06:00:00 2.8 0 Calma 3 Norte 0 -- -- 97
2019-10-21 05:00:00 3.4 0 Calma 5 Norte 0 -- -- 98
2019-10-21 04:00:00 4 4 Norte 6 Norte 0 -- -- 97
2019-10-21 03:00:00 4.4 3 Noroeste 6 Norte 0 -- -- 97
2019-10-21 02:00:00 4.7 3 Norte 6 Norte 0 -- -- 97
2019-10-21 01:00:00 5.1 0 Calma 6 Noroeste 0 -- -- 96
2019-10-21 00:00:00 5.9 3 Noroeste 9 Sudoeste 0 -- -- 96
2019-10-20 23:00:00 6.6 4 Noroeste 8 Oeste 0 -- -- 96
2019-10-20 22:00:00 7.1 2 Norte 6 Norte 0 -- -- 94
2019-10-20 21:00:00 8.3 0 Calma 10 Oeste 0 -- -- 94
2019-10-20 20:00:00 9 2 Sudoeste 9 Norte 0 -- -- 92
2019-10-20 19:00:00 10.1 2 Nordeste 13 Sudoeste 2.6 -- -- 89
2019-10-20 18:00:00 11.7 6 Noroeste 14 Noroeste 3.6 -- -- 78
2019-10-20 17:00:00 13 6 Norte 17 Oeste 0.4 -- -- 75
2019-10-20 16:00:00 14 7 Sudoeste 19 Sudoeste 0 -- -- 63
2019-10-20 15:00:00 12.8 7 Oeste 20 Noroeste 0 -- -- 67
2019-10-20 14:00:00 12.3 6 Noroeste 30 Noroeste 0 -- -- 67
2019-10-20 13:00:00 11.4 8 Oeste 26 Sudoeste 0 -- -- 77
2019-10-20 12:00:00 10 13 Oeste 29 Oeste 0 -- -- 85
2019-10-20 11:00:00 9.1 11 Sudoeste 20 Oeste 0 -- -- 87
2019-10-20 10:00:00 8.6 8 Oeste 18 Oeste 0 -- -- 89
2019-10-20 09:00:00 8.6 7 Noroeste 17 Noroeste 0 -- -- 89
2019-10-20 08:00:00 8.9 3 Oeste 15 Oeste 0 -- -- 89
2019-10-20 07:00:00 9 4 Oeste 18 Noroeste 0.2 -- -- 91
2019-10-20 06:00:00 9.2 5 Oeste 16 Oeste 0.2 -- -- 98
2019-10-20 05:00:00 8.9 2 Sur 5 Sudeste 0.2 -- -- 98
2019-10-20 04:00:00 8.6 0 Calma 6 Oeste 0.8 -- -- 98
2019-10-20 03:00:00 8.1 0 Calma 5 Norte 0 -- -- 97
2019-10-20 02:00:00 7.7 3 Nordeste 4 Nordeste 0 -- -- 96
2019-10-20 01:00:00 8.6 3 Oeste 10 Sudoeste 0 -- -- 95
2019-10-20 00:00:00 9.3 4 Sudoeste 9 Sudoeste 0 -- -- 94
2019-10-19 23:00:00 11 3 Norte 19 Oeste 0 -- -- 91
2019-10-19 22:00:00 13 8 Oeste 20 Oeste 0 -- -- 87
2019-10-19 21:00:00 13.5 6 Norte 16 Sur 0.4 -- -- 93
2019-10-19 20:00:00 14.2 6 Sur 22 Este 3.8 -- -- 89
2019-10-19 19:00:00 13.9 9 Nordeste 29 Oeste 6.8 -- -- 92
2019-10-19 18:00:00 13.3 7 Sur 35 Este 3.4 -- -- 93
2019-10-19 17:00:00 12.9 6 Este 31 Este 4.2 -- -- 93
2019-10-19 16:00:00 12.8 9 Este 26 Este 1.4 -- -- 92
2019-10-19 15:00:00 12.9 3 Nordeste 17 Este 1.6 -- -- 93
2019-10-19 14:00:00 12.7 13 Sudeste 24 Este 0.6 -- -- 91
2019-10-19 13:00:00 13 5 Sur 23 Sur 0.4 -- -- 90
2019-10-19 12:00:00 13 9 Sur 26 Sur 0.2 -- -- 87
2019-10-19 11:00:00 12.2 3 Nordeste 13 Oeste 0 -- -- 93
2019-10-19 10:00:00 11.7 3 Noroeste 21 Este 0.2 -- -- 93
2019-10-19 09:00:00 12 9 Este 17 Sudeste 0 -- -- 90
2019-10-19 08:00:00 11.9 7 Este 13 Este 0 -- -- 90
2019-10-19 07:00:00 11.1 5 Norte 10 Norte 0 -- -- 88
2019-10-19 06:00:00 11.2 0 Calma 9 Nordeste 0 -- -- 86
2019-10-19 05:00:00 13 6 Sudoeste 16 Oeste 0 -- -- 74
2019-10-19 04:00:00 12.3 3 Nordeste 5 Norte 0 -- -- 92
2019-10-19 03:00:00 12.1 2 Nordeste 6 Nordeste 0 -- -- 93
2019-10-19 02:00:00 11.9 0 Calma 4 Sudeste 0 -- -- 93
2019-10-19 01:00:00 11.7 0 Calma 3 Nordeste 0 -- -- 93
2019-10-19 00:00:00 11.6 0 Calma 4 Nordeste 0 -- -- 92
2019-10-18 23:00:00 12.1 2 Este 8 Norte 0 -- -- 89
2019-10-18 22:00:00 12.9 4 Norte 9 Norte 0 -- -- 87
2019-10-18 21:00:00 14.4 0 Calma 5 Norte 0 -- -- 83
2019-10-18 20:00:00 16.1 0 Calma 12 Sur 0 -- -- 76
2019-10-18 19:00:00 18.1 4 Sur 12 Sur 0 -- -- 66
2019-10-18 18:00:00 18.5 6 Sudoeste 18 Sudoeste 0 -- -- 62
2019-10-18 17:00:00 19.4 5 Sur 22 Sudeste 0 -- -- 60
2019-10-18 16:00:00 19.8 10 Este 24 Sudeste 0 -- -- 65
2019-10-18 15:00:00 19.9 6 Sur 20 Sur 0 -- -- 66
2019-10-18 14:00:00 18.4 10 Sudoeste 20 Sudoeste 0 -- -- 73
2019-10-18 13:00:00 18.2 7 Sudoeste 17 Sudoeste 0 -- -- 76
2019-10-18 12:00:00 16.8 0 Calma 5 Sudoeste 0 -- -- 95
2019-10-18 11:00:00 15.8 2 Oeste 4 Noroeste 0 -- -- 97
2019-10-18 10:00:00 14.9 0 Calma 4 Norte 0 -- -- 97
2019-10-18 09:00:00 14.7 2 Noroeste 5 Noroeste 0 -- -- 97
2019-10-18 08:00:00 15 0 Calma 5 Oeste 0 -- -- 97
2019-10-18 07:00:00 15.4 0 Calma 5 Nordeste 0 -- -- 96
2019-10-18 06:00:00 16 3 Norte 5 Nordeste 0 -- -- 96
2019-10-18 05:00:00 16.2 0 Calma 7 Norte 0.6 -- -- 97
2019-10-18 04:00:00 16.2 0 Calma 12 Noroeste 1 -- -- 97
2019-10-18 03:00:00 16.2 8 Norte 15 Norte 1 -- -- 97
2019-10-18 02:00:00 15.9 6 Nordeste 13 Norte 1 -- -- 97
2019-10-18 01:00:00 15.6 5 Norte 11 Nordeste 0.6 -- -- 97
2019-10-18 00:00:00 15.5 3 Norte 5 Norte 1 -- -- 96
2019-10-17 23:00:00 15.3 0 Calma 4 Nordeste 0.4 -- -- 96
2019-10-17 22:00:00 15.3 0 Calma 6 Nordeste 1.8 -- -- 96
2019-10-17 21:00:00 15.2 0 Calma 3 Este 1 -- -- 95
2019-10-17 20:00:00 15.3 0 Calma 5 Nordeste 0.4 -- -- 95
2019-10-17 19:00:00 15.5 0 Calma 6 Este 0.4 -- -- 93
2019-10-17 18:00:00 15.7 3 Norte 12 Sudeste 0 -- -- 91
2019-10-17 17:00:00 16 0 Calma 10 Este 0.2 -- -- 93
2019-10-17 16:00:00 15.5 3 Este 12 Norte 0.6 -- -- 91
2019-10-17 15:00:00 16 4 Nordeste 13 Este 0 -- -- 87
2019-10-17 14:00:00 15.7 7 Este 15 Este 0 -- -- 87
2019-10-17 13:00:00 15.4 7 Este 12 Este 0 -- -- 89
2019-10-17 12:00:00 14.4 6 Este 12 Este 0 -- -- 91
2019-10-17 11:00:00 13.5 6 Este 10 Sudeste 0 -- -- 94
2019-10-17 10:00:00 13.1 2 Este 7 Este 0 -- -- 94
2019-10-17 09:00:00 13 2 Este 6 Nordeste 0 -- -- 94
2019-10-17 08:00:00 13 0 Calma 12 Norte 0.2 -- -- 94
2019-10-17 07:00:00 13 4 Nordeste 11 Este 2.8 -- -- 93
2019-10-17 06:00:00 13.5 4 Nordeste 13 Sudeste 1.6 -- -- 89
2019-10-17 05:00:00 14.8 6 Sur 16 Sudoeste 0 -- -- 75
2019-10-17 04:00:00 15.1 3 Este 22 Este 0 -- -- 74
2019-10-17 03:00:00 15.1 12 Este 24 Sudeste 0 -- -- 74
2019-10-17 02:00:00 15.6 8 Oeste 18 Oeste 0 -- -- 71
2019-10-17 01:00:00 14.3 2 Norte 11 Noroeste 0 -- -- 75
2019-10-17 00:00:00 13.8 2 Sudeste 9 Norte 0 -- -- 76
2019-10-16 23:00:00 13.8 4 Nordeste 9 Nordeste 0 -- -- 75
2019-10-16 22:00:00 13.8 4 Este 7 Este 0 -- -- 77
2019-10-16 21:00:00 14.7 0 Calma 4 Nordeste 0 -- -- 76
2019-10-16 20:00:00 15.6 2 Oeste 9 Este 0 -- -- 70
2019-10-16 19:00:00 16.8 2 Sudoeste 14 Sudoeste 0 -- -- 63
2019-10-16 18:00:00 17.4 8 Sur 18 Sudeste 0 -- -- 56
2019-10-16 17:00:00 17.1 8 Sur 30 Oeste 0 -- -- 57
2019-10-16 16:00:00 17.3 6 Sudoeste 23 Oeste 0 -- -- 56
2019-10-16 15:00:00 16.9 7 Sur 21 Sur 0 -- -- 58
2019-10-16 14:00:00 15.5 2 Nordeste 12 Sudeste 0 -- -- 63
2019-10-16 13:00:00 15.3 6 Sudeste 17 Sudeste 0 -- -- 65
2019-10-16 12:00:00 13.2 6 Sudeste 17 Este 0 -- -- 77
2019-10-16 11:00:00 9.1 0 Calma 3 Sudeste 0 -- -- 98
2019-10-16 10:00:00 5.8 0 Calma 3 Noroeste 0 -- -- 98
2019-10-16 09:00:00 4.4 0 Calma 3 Noroeste 0 -- -- 97
2019-10-16 08:00:00 4.8 0 Calma 4 Norte 0 -- -- 96
2019-10-16 07:00:00 5.2 0 Calma 5 Este 0 -- -- 96
2019-10-16 06:00:00 5.5 0 Calma 4 Norte 0 -- -- 95
2019-10-16 05:00:00 6.2 0 Calma 4 Norte 0 -- -- 94
2019-10-16 04:00:00 6.9 0 Calma 4 Norte 0 -- -- 94
2019-10-16 03:00:00 7.9 0 Calma 4 Norte 0 -- -- 93
2019-10-16 02:00:00 8.2 0 Calma 5 Noroeste 0 -- -- 92
2019-10-16 01:00:00 8.6 3 Noroeste 6 Oeste 0 -- -- 92
2019-10-16 00:00:00 8.9 0 Calma 3 Noroeste 0 -- -- 90
2019-10-15 23:00:00 9.5 0 Calma 4 Oeste 0 -- -- 87
2019-10-15 22:00:00 10.5 0 Calma 3 Oeste 0 -- -- 86
2019-10-15 21:00:00 12 0 Calma 3 Sudoeste 0 -- -- 80
2019-10-15 20:00:00 13.3 0 Calma 6 Oeste 0 -- -- 75
2019-10-15 19:00:00 15.8 5 Oeste 11 Oeste 0 -- -- 58
2019-10-15 18:00:00 16.1 7 Oeste 17 Este 0 -- -- 54
2019-10-15 17:00:00 16.7 7 Este 18 Sudeste 0 -- -- 54
2019-10-15 16:00:00 16.4 10 Este 15 Sudeste 0 -- -- 54
2019-10-15 15:00:00 16.5 3 Sur 12 Sudoeste 0 -- -- 54
2019-10-15 14:00:00 15.5 4 Sudoeste 16 Norte 0 -- -- 52
2019-10-15 13:00:00 15 8 Sudoeste 17 Oeste 0 -- -- 57
2019-10-15 12:00:00 12.7 9 Este 14 Este 0 -- -- 74
2019-10-15 11:00:00 9.1 4 Sudeste 8 Este 0 -- -- 90
2019-10-15 10:00:00 6.1 0 Calma 6 Este 0 -- -- 98
2019-10-15 09:00:00 4.1 0 Calma 8 Este 0 -- -- 96
2019-10-15 08:00:00 4.4 0 Calma 6 Oeste 0 -- -- 96
2019-10-15 07:00:00 5.1 3 Noroeste 6 Oeste 0 -- -- 97
2019-10-15 06:00:00 4.6 0 Calma 4 Sudeste 0 -- -- 96
2019-10-15 05:00:00 4.8 0 Calma 3 Norte 0 -- -- 94
2019-10-15 04:00:00 5.7 0 Calma 4 Noroeste 0 -- -- 93
2019-10-15 03:00:00 6.7 0 Calma 8 Oeste 0 -- -- 89
2019-10-15 02:00:00 8.2 6 Oeste 14 Oeste 0 -- -- 84
2019-10-15 01:00:00 8.2 6 Oeste 18 Oeste 0 -- -- 85
2019-10-15 00:00:00 7 5 Oeste 9 Oeste 0 -- -- 94
2019-10-14 23:00:00 7.2 0 Calma 4 Oeste 0 -- -- 92
2019-10-14 22:00:00 8.1 0 Calma 9 Este 0 -- -- 90
2019-10-14 21:00:00 9.4 3 Este 10 Sudoeste 0 -- -- 86
2019-10-14 20:00:00 12.1 10 Oeste 26 Oeste 0 -- -- 71
2019-10-14 19:00:00 13.2 9 Oeste 23 Oeste 0 -- -- 72
2019-10-14 18:00:00 12.1 4 Oeste 41 Oeste 0.6 -- -- 82
2019-10-14 17:00:00 13.5 6 Este 11 Este 0 -- -- 87
2019-10-14 16:00:00 11.8 3 Sur 6 Este 1.4 -- -- 94
2019-10-14 15:00:00 11.6 2 Este 27 Oeste 9 -- -- 90
2019-10-14 14:00:00 13 4 Nordeste 12 Sudeste 2.6 -- -- 90
2019-10-14 13:00:00 13.4 5 Oeste 24 Sudoeste 0 -- -- 83
2019-10-14 12:00:00 14.4 9 Sur 26 Sudeste 0 -- -- 71
2019-10-14 11:00:00 14.2 9 Oeste 21 Oeste 0 -- -- 72
2019-10-14 10:00:00 12.9 3 Sudoeste 11 Norte 0 -- -- 88
2019-10-14 09:00:00 12.4 3 Sudeste 27 Oeste 3.4 -- -- 91
2019-10-14 08:00:00 14.6 4 Nordeste 23 Este 3.2 -- -- 88
2019-10-14 07:00:00 15.7 10 Este 23 Este 0.8 -- -- 82
2019-10-14 06:00:00 16.9 5 Sudoeste 19 Sudeste 0 -- -- 71
2019-10-14 05:00:00 17 5 Noroeste 26 Sudeste 0 -- -- 69
2019-10-14 04:00:00 16.5 3 Este 15 Sudeste 0 -- -- 71
2019-10-14 03:00:00 14.2 3 Oeste 9 Noroeste 0 -- -- 77
2019-10-14 02:00:00 13.5 2 Noroeste 11 Norte 0 -- -- 79
2019-10-14 01:00:00 13 4 Nordeste 9 Noroeste 0 -- -- 80
2019-10-14 00:00:00 13.8 3 Noroeste 9 Norte 0 -- -- 76